Jenner, California
Current Conditions -  °F | °C
As of 5:53 AM on Thursday 18 Dec 2014 (Local Time) from KSTS Reporting Station
Haze Haze  
Wind Chill: 50°   Ceiling: 1800
Heat Index: 50°   Visibility: 5mi
Dew Point: 49°   Wind: 0mph
Humidity: 96%   Direction: NA
Pressure: 30.09"   Gusts: NA
Location:  38.45°N, 123.12°W
Report Text: KSTS 181353Z AUTO 00000KT 5SM BR SCT013 OVC018 10/09 A3009 RMK AO2 RAE00B29E49 SLP183 P0000 T01000094
Loading
Personal Weather Stations






























Interactive Weather Map New forecast layout! Learn more

10-Day Weather Forecast

Advertisements
Track Severe Weather on mobile